Time;durP1;ratioP1;P1;durP2;ratioP2;P2;SDS_P1;SDS_P2;PMS_P1;PMS_P2;Temp;Humidity;BMP_temperature;BMP_pressure;BME280_temperature;BME280_humidity;BME280_pressure;Samples;Min_cycle;Max_cycle;Signal;HPM_P1;HPM_P2
2021/10/15 00:00:57;;;;;;;8.68;2.80;;;;;;;12.12;71.86;100290.78;4993973;28;20042;-54
2021/10/15 00:03:24;;;;;;;4.38;2.38;;;;;;;12.12;71.45;100301.16;4991447;28;20379;-51
2021/10/15 00:05:51;;;;;;;7.88;2.58;;;;;;;12.11;71.61;100299.41;4993120;28;20596;-52
2021/10/15 00:08:18;;;;;;;8.15;2.72;;;;;;;12.12;72.25;100290.78;4991507;28;20104;-52
2021/10/15 00:10:44;;;;;;;5.82;2.67;;;;;;;12.12;72.10;100291.63;4985023;28;20054;-53
2021/10/15 00:13:11;;;;;;;6.78;2.50;;;;;;;12.11;71.46;100294.22;4991643;28;20104;-52
2021/10/15 00:15:38;;;;;;;6.85;3.13;;;;;;;12.10;72.13;100298.56;4987345;28;20438;-54
2021/10/15 00:18:05;;;;;;;5.78;2.45;;;;;;;12.08;72.15;100297.69;4990271;28;20050;-54
2021/10/15 00:20:31;;;;;;;5.05;2.45;;;;;;;12.07;72.63;100294.25;4995695;28;20463;-51
2021/10/15 00:22:58;;;;;;;5.65;2.65;;;;;;;12.03;71.96;100292.47;4995356;28;20046;-53
2021/10/15 00:25:24;;;;;;;6.38;2.85;;;;;;;12.04;72.58;100291.63;4990194;28;20093;-53
2021/10/15 00:27:51;;;;;;;10.70;3.35;;;;;;;12.04;71.75;100295.97;4987066;28;20485;-54
2021/10/15 00:30:18;;;;;;;4.15;2.50;;;;;;;12.03;71.62;100297.69;4994930;28;20070;-53
2021/10/15 00:32:44;;;;;;;7.38;2.60;;;;;;;12.02;72.38;100290.75;4998848;28;20051;-51
2021/10/15 00:35:11;;;;;;;5.03;2.50;;;;;;;12.03;71.78;100294.25;4989108;28;20054;-51
2021/10/15 00:37:37;;;;;;;7.35;2.72;;;;;;;12.03;72.44;100289.88;4995245;28;20046;-51
2021/10/15 00:40:04;;;;;;;5.30;2.42;;;;;;;12.04;72.80;100296.84;4994085;28;20046;-52
2021/10/15 00:42:31;;;;;;;5.03;2.30;;;;;;;12.02;72.54;100285.56;4998123;28;20050;-54
2021/10/15 00:44:58;;;;;;;4.15;1.85;;;;;;;12.03;72.75;100287.28;4989247;28;20042;-53
2021/10/15 00:47:24;;;;;;;6.03;2.72;;;;;;;12.03;72.86;100292.47;4991828;28;20745;-53
2021/10/15 00:49:51;;;;;;;5.65;2.28;;;;;;;12.02;72.02;100290.75;4995678;28;21304;-52
2021/10/15 00:52:17;;;;;;;5.82;2.67;;;;;;;12.04;72.96;100283.84;4990939;28;20046;-53
2021/10/15 00:54:48;;;;;;;7.63;3.05;;;;;;;12.06;71.84;100284.72;4998538;28;20050;-50
2021/10/15 00:57:17;;;;;;;6.22;2.40;;;;;;;12.10;72.11;100283.00;4991983;28;20284;-50
2021/10/15 00:59:43;;;;;;;5.00;2.35;;;;;;;12.12;71.84;100275.19;4989034;28;20054;-51
2021/10/15 01:02:10;;;;;;;5.95;2.42;;;;;;;12.13;72.65;100275.16;4988727;28;20046;-50
2021/10/15 01:04:37;;;;;;;5.07;2.40;;;;;;;12.17;73.06;100268.22;4995798;28;20062;-53
2021/10/15 01:07:05;;;;;;;6.53;2.45;;;;;;;12.18;73.01;100276.00;4993102;28;20050;-50
2021/10/15 01:09:32;;;;;;;7.68;2.53;;;;;;;12.19;72.11;100271.66;4989434;28;20042;-51
2021/10/15 01:12:01;;;;;;;4.63;2.20;;;;;;;12.21;72.62;100267.34;4993603;28;20048;-49
2021/10/15 01:14:28;;;;;;;6.05;2.80;;;;;;;12.21;72.37;100269.94;4991201;28;20406;-51
2021/10/15 01:16:55;;;;;;;8.85;2.58;;;;;;;12.21;71.63;100264.75;4993596;28;20075;-50
2021/10/15 01:19:22;;;;;;;6.50;2.80;;;;;;;12.20;71.84;100257.84;4989514;28;20112;-51
2021/10/15 01:21:49;;;;;;;7.57;2.35;;;;;;;12.21;72.20;100249.16;4989337;28;20360;-49
2021/10/15 01:24:17;;;;;;;5.43;2.22;;;;;;;12.19;72.16;100258.69;4989255;28;20093;-50
2021/10/15 01:26:44;;;;;;;7.28;3.35;;;;;;;12.21;73.09;100254.34;4990231;28;20442;-50
2021/10/15 01:29:11;;;;;;;6.85;2.67;;;;;;;12.22;72.97;100256.06;4989777;28;20050;-51
2021/10/15 01:31:38;;;;;;;7.07;2.20;;;;;;;12.24;72.78;100259.53;4984086;28;20710;-52
2021/10/15 01:34:05;;;;;;;4.75;2.38;;;;;;;12.26;73.07;100256.94;4999373;28;20054;-49
2021/10/15 01:36:31;;;;;;;4.47;1.80;;;;;;;12.26;72.12;100257.78;4990538;28;20050;-50
2021/10/15 01:38:58;;;;;;;6.93;2.55;;;;;;;12.27;72.15;100251.72;4994241;28;20418;-51
2021/10/15 01:41:24;;;;;;;8.00;2.58;;;;;;;12.28;71.66;100253.44;4996053;28;20042;-52
2021/10/15 01:43:51;;;;;;;8.05;2.33;;;;;;;12.31;71.62;100244.75;4998661;28;20114;-50
2021/10/15 01:46:18;;;;;;;5.22;2.63;;;;;;;12.31;72.44;100248.25;4987044;28;20050;-50
2021/10/15 01:48:45;;;;;;;4.78;2.53;;;;;;;12.32;71.55;100246.47;4991242;28;20398;-50
2021/10/15 01:51:12;;;;;;;3.72;2.13;;;;;;;12.33;71.58;100245.63;4998709;28;20049;-51
2021/10/15 01:53:40;;;;;;;7.35;2.58;;;;;;;12.34;72.38;100235.22;4990833;28;20046;-51
2021/10/15 01:56:09;;;;;;;6.43;2.10;;;;;;;12.36;71.76;100236.94;5005219;28;20054;-50
2021/10/15 01:58:35;;;;;;;6.45;2.63;;;;;;;12.33;73.25;100238.69;4992864;28;20053;-52
2021/10/15 02:01:02;;;;;;;6.55;2.72;;;;;;;12.36;72.31;100230.00;4991057;28;20158;-53
2021/10/15 02:03:29;;;;;;;5.78;2.53;;;;;;;12.36;73.03;100226.56;4997387;28;20046;-51
2021/10/15 02:05:56;;;;;;;4.20;2.30;;;;;;;12.34;72.98;100219.63;4991280;28;20054;-51
2021/10/15 02:08:22;;;;;;;6.55;3.13;;;;;;;12.34;72.85;100214.44;4991812;28;20367;-50
2021/10/15 02:10:49;;;;;;;7.63;2.63;;;;;;;12.31;72.15;100213.59;4991067;28;20078;-52
2021/10/15 02:13:16;;;;;;;6.25;2.55;;;;;;;12.30;72.05;100207.53;4994927;28;20054;-50
2021/10/15 02:15:42;;;;;;;5.90;2.90;;;;;;;12.27;71.75;100202.38;4989684;28;20716;-51
2021/10/15 02:18:09;;;;;;;5.95;2.10;;;;;;;12.26;72.59;100216.22;4989966;28;20565;-54
2021/10/15 02:20:36;;;;;;;4.95;2.90;;;;;;;12.23;72.00;100216.28;4990180;28;20050;-50
2021/10/15 02:23:03;;;;;;;6.15;2.30;;;;;;;12.21;72.46;100213.69;4997490;28;20614;-54
2021/10/15 02:25:30;;;;;;;6.80;2.65;;;;;;;12.18;72.94;100218.88;4998740;28;20053;-52
2021/10/15 02:27:58;;;;;;;6.30;2.75;;;;;;;12.18;73.16;100225.81;4990810;28;20443;-52
2021/10/15 02:30:26;;;;;;;7.03;2.70;;;;;;;12.14;72.19;100222.38;4992057;28;20053;-53
2021/10/15 02:32:52;;;;;;;3.88;2.25;;;;;;;12.12;72.87;100224.09;4992478;28;20053;-51
2021/10/15 02:35:19;;;;;;;6.13;2.58;;;;;;;12.07;72.21;100216.38;5001388;28;20050;-50
2021/10/15 02:37:46;;;;;;;5.88;2.83;;;;;;;12.06;72.00;100219.81;4988549;28;20054;-51
2021/10/15 02:40:13;;;;;;;5.47;2.70;;;;;;;12.05;72.55;100223.25;4992795;28;20058;-50
2021/10/15 02:42:40;;;;;;;5.75;2.30;;;;;;;12.03;72.20;100222.38;4985312;28;20058;-51
2021/10/15 02:45:07;;;;;;;6.50;3.08;;;;;;;12.02;72.37;100223.28;4988477;28;20430;-51
2021/10/15 02:47:34;;;;;;;4.85;2.70;;;;;;;12.02;73.73;100223.28;4992254;28;20473;-50
2021/10/15 02:50:01;;;;;;;6.93;2.50;;;;;;;12.00;73.83;100219.84;4986616;28;20054;-50
2021/10/15 02:52:28;;;;;;;4.25;2.47;;;;;;;11.99;72.50;100212.91;4995633;28;20108;-50
2021/10/15 02:54:55;;;;;;;5.55;2.58;;;;;;;11.99;72.64;100218.09;4989579;28;20604;-51
2021/10/15 02:57:21;;;;;;;5.85;2.65;;;;;;;12.01;73.30;100218.97;4991714;28;20054;-51
2021/10/15 02:59:48;;;;;;;6.72;2.28;;;;;;;12.03;73.57;100219.78;4989025;28;20046;-50
2021/10/15 03:02:15;;;;;;;5.63;2.47;;;;;;;12.05;72.57;100212.88;4986367;28;20050;-51
2021/10/15 03:04:42;;;;;;;6.18;2.50;;;;;;;12.09;72.58;100218.94;4988478;28;20388;-51
2021/10/15 03:07:09;;;;;;;8.27;2.80;;;;;;;12.12;72.28;100218.06;4992015;28;20050;-52
2021/10/15 03:09:36;;;;;;;5.03;2.70;;;;;;;12.13;73.43;100224.97;4988936;28;20506;-51
2021/10/15 03:12:04;;;;;;;7.72;3.25;;;;;;;12.15;73.74;100218.91;4989559;28;20491;-51
2021/10/15 03:14:31;;;;;;;10.02;3.13;;;;;;;12.17;73.94;100226.69;4991865;28;20124;-51
2021/10/15 03:17:00;;;;;;;6.78;2.72;;;;;;;12.17;73.65;100235.34;4990974;28;20078;-52
2021/10/15 03:19:27;;;;;;;6.93;2.40;;;;;;;12.18;73.64;100241.38;4992761;28;20719;-50
2021/10/15 03:21:54;;;;;;;8.02;2.50;;;;;;;12.21;73.53;100243.97;4985752;28;20495;-52
2021/10/15 03:24:20;;;;;;;6.57;3.30;;;;;;;12.22;72.88;100245.69;4995611;28;20557;-51
2021/10/15 03:26:47;;;;;;;5.13;2.45;;;;;;;12.24;73.72;100238.75;4985942;28;20057;-51
2021/10/15 03:29:13;;;;;;;5.63;2.50;;;;;;;12.25;72.63;100243.06;4993622;28;20054;-53
2021/10/15 03:31:40;;;;;;;7.25;2.33;;;;;;;12.28;72.64;100249.97;4990848;28;21247;-51
2021/10/15 03:34:07;;;;;;;4.82;2.97;;;;;;;12.28;72.32;100256.03;4989877;28;20847;-50
2021/10/15 03:36:33;;;;;;;8.25;3.05;;;;;;;12.29;73.45;100257.75;4991229;28;20092;-51
2021/10/15 03:39:00;;;;;;;6.93;1.92;;;;;;;12.26;73.53;100257.78;4991826;28;20050;-50
2021/10/15 03:41:26;;;;;;;6.00;2.35;;;;;;;12.30;73.93;100262.06;4985041;28;20054;-51
2021/10/15 03:43:53;;;;;;;6.35;2.25;;;;;;;12.30;73.04;100259.47;4989070;28;20576;-51
2021/10/15 03:46:19;;;;;;;8.15;2.42;;;;;;;12.31;74.07;100263.81;4997367;28;20042;-50
2021/10/15 03:48:46;;;;;;;6.07;2.45;;;;;;;12.32;74.19;100256.88;4988963;28;20069;-50
2021/10/15 03:51:13;;;;;;;8.10;2.35;;;;;;;12.31;74.47;100265.53;4992251;28;20058;-50
2021/10/15 03:53:39;;;;;;;6.97;3.40;;;;;;;12.32;73.40;100273.34;4987366;28;20101;-50
2021/10/15 03:56:06;;;;;;;5.80;2.60;;;;;;;12.31;73.68;100276.81;4984048;28;20050;-50
2021/10/15 03:58:36;;;;;;;8.88;2.30;;;;;;;12.34;73.71;100287.16;4988513;28;20050;-52
2021/10/15 04:01:02;;;;;;;7.28;2.50;;;;;;;12.35;74.05;100288.03;4988811;28;20054;-50
2021/10/15 04:03:29;;;;;;;6.97;2.78;;;;;;;12.33;74.88;100280.25;4996975;28;20058;-50
2021/10/15 04:05:57;;;;;;;7.63;2.60;;;;;;;12.34;74.66;100286.31;4988820;28;20110;-50
2021/10/15 04:08:24;;;;;;;7.55;2.75;;;;;;;12.34;74.56;100296.69;4992854;28;20050;-50
2021/10/15 04:10:51;;;;;;;6.72;2.40;;;;;;;12.34;74.23;100294.09;4985731;28;20065;-50
2021/10/15 04:13:18;;;;;;;7.25;2.30;;;;;;;12.31;74.07;100292.38;4988487;28;20058;-53
2021/10/15 04:15:44;;;;;;;8.25;2.80;;;;;;;12.32;75.05;100299.31;4991308;28;20089;-54
2021/10/15 04:18:11;;;;;;;2.67;2.13;;;;;;;12.19;73.78;100319.28;4990310;28;20398;-50
2021/10/15 04:20:39;;;;;;;3.42;1.95;;;;;;;12.10;74.29;100334.03;4991036;28;20101;-49
2021/10/15 04:23:06;;;;;;;1.52;0.80;;;;;;;11.90;72.53;100332.34;4987660;28;20054;-50
2021/10/15 04:25:33;;;;;;;1.45;1.15;;;;;;;11.68;72.97;100333.28;4988004;28;20499;-50
2021/10/15 04:27:59;;;;;;;1.38;1.08;;;;;;;11.52;72.04;100348.00;4989005;28;20101;-51
2021/10/15 04:30:26;;;;;;;4.53;0.93;;;;;;;11.41;72.17;100353.22;4993390;28;20073;-51
2021/10/15 04:32:53;;;;;;;1.83;1.15;;;;;;;11.32;72.76;100361.03;4991141;28;20046;-51
2021/10/15 04:35:19;;;;;;;2.60;1.42;;;;;;;11.22;72.71;100370.53;4994443;28;20491;-50
2021/10/15 04:37:46;;;;;;;2.20;1.33;;;;;;;11.17;73.37;100369.66;4992011;28;20050;-53
2021/10/15 04:40:13;;;;;;;3.83;2.22;;;;;;;11.09;73.19;100368.81;4994635;28;20077;-51
2021/10/15 04:42:39;;;;;;;1.83;1.27;;;;;;;11.03;72.69;100378.31;5000055;28;20054;-50
2021/10/15 04:45:07;;;;;;;1.70;1.05;;;;;;;10.99;72.54;100379.19;4991548;28;20066;-51
2021/10/15 04:47:34;;;;;;;1.73;0.80;;;;;;;10.92;72.66;100385.22;4996445;28;20113;-50
2021/10/15 04:50:01;;;;;;;1.17;1.08;;;;;;;10.86;72.73;100404.22;4992943;28;20050;-53
2021/10/15 04:52:27;;;;;;;0.82;0.35;;;;;;;10.76;72.40;100398.16;4989413;28;20046;-49
2021/10/15 04:54:54;;;;;;;2.38;0.65;;;;;;;10.72;71.78;100404.19;4993552;28;20046;-50
2021/10/15 04:57:21;;;;;;;1.67;0.50;;;;;;;10.66;71.66;100402.44;4993564;28;20132;-51
2021/10/15 04:59:47;;;;;;;1.67;0.45;;;;;;;10.60;71.00;100406.75;4992938;28;20038;-52
2021/10/15 05:02:14;;;;;;;0.70;0.32;;;;;;;10.53;71.15;100417.06;4994552;28;20531;-51
2021/10/15 05:04:41;;;;;;;1.50;0.35;;;;;;;10.48;71.36;100418.78;4989559;28;20046;-52
2021/10/15 05:07:07;;;;;;;3.33;0.57;;;;;;;10.46;70.73;100422.22;4992477;28;20042;-49
2021/10/15 05:09:36;;;;;;;1.02;0.50;;;;;;;10.41;70.30;100428.22;4995058;28;20128;-51
2021/10/15 05:12:06;;;;;;;0.63;0.55;;;;;;;10.39;70.74;100429.06;4993617;28;20435;-52
2021/10/15 05:14:33;;;;;;;1.45;0.50;;;;;;;10.39;71.27;100422.19;4989402;28;20046;-53
2021/10/15 05:17:02;;;;;;;1.35;0.50;;;;;;;10.38;70.79;100427.34;4988054;28;20498;-50
2021/10/15 05:19:29;;;;;;;5.68;0.57;;;;;;;10.33;70.62;100429.06;4989548;28;20498;-51
2021/10/15 05:21:58;;;;;;;2.95;0.85;;;;;;;10.35;70.81;100432.50;4990895;28;20104;-50
2021/10/15 05:24:26;;;;;;;1.73;0.80;;;;;;;10.34;70.81;100430.78;4993245;28;20050;-51
2021/10/15 05:26:52;;;;;;;2.25;0.80;;;;;;;10.29;71.20;100439.41;4990875;28;20054;-50
2021/10/15 05:29:19;;;;;;;2.88;1.33;;;;;;;10.31;70.56;100441.13;4991567;28;20081;-53
2021/10/15 05:31:45;;;;;;;2.85;0.80;;;;;;;10.32;70.81;100442.84;4999711;28;20050;-49
2021/10/15 05:34:12;;;;;;;4.60;0.90;;;;;;;10.33;70.65;100450.63;4992910;28;20054;-51
2021/10/15 05:36:39;;;;;;;2.65;0.82;;;;;;;10.32;71.05;100454.06;4991317;28;20106;-49
2021/10/15 05:39:06;;;;;;;1.85;1.02;;;;;;;10.32;70.86;100463.56;4989847;28;20097;-50
2021/10/15 05:41:33;;;;;;;3.15;1.13;;;;;;;10.33;70.58;100460.13;4995290;28;20038;-52
2021/10/15 05:44:00;;;;;;;2.58;0.70;;;;;;;10.33;71.18;100457.53;4995552;28;20045;-49
2021/10/15 05:46:26;;;;;;;1.92;1.30;;;;;;;10.32;70.78;100463.56;4992205;28;20054;-53
2021/10/15 05:48:53;;;;;;;2.65;1.17;;;;;;;10.33;70.94;100462.72;4994579;28;20050;-50
2021/10/15 05:51:22;;;;;;;5.93;1.17;;;;;;;10.33;70.79;100473.06;4987239;28;20050;-50
2021/10/15 05:53:51;;;;;;;3.15;1.13;;;;;;;10.33;71.17;100471.34;4996610;28;20046;-50
2021/10/15 05:57:02;;;;;;;2.22;1.13;;;;;;;10.33;70.99;100475.66;4989925;28;20062;-49
2021/10/15 05:59:04;;;;;;;2.63;0.88;;;;;;;10.33;70.74;100465.31;4992800;28;20101;-51
2021/10/15 06:01:35;;;;;;;3.13;1.48;;;;;;;10.29;70.45;100465.28;4987799;28;20055;-51
2021/10/15 06:06:09;;;;;;;2.10;1.10;;;;;;;10.29;70.71;100474.75;4988436;28;20053;-50
2021/10/15 06:15:09;;;;;;;4.68;1.20;;;;;;;10.32;70.60;100481.69;4993674;28;20042;-53
2021/10/15 06:17:42;;;;;;;1.73;1.02;;;;;;;10.33;70.47;100479.09;4988755;28;20096;-49
2021/10/15 06:20:11;;;;;;;3.33;0.85;;;;;;;10.34;70.83;100482.56;4989299;28;20058;-50
2021/10/15 06:22:37;;;;;;;3.55;1.05;;;;;;;10.34;70.47;100485.16;4988718;28;20491;-52
2021/10/15 06:25:05;;;;;;;2.95;0.95;;;;;;;10.35;70.80;100490.34;4990326;28;20058;-50
2021/10/15 06:27:31;;;;;;;2.05;0.80;;;;;;;10.34;70.68;100487.75;4988732;28;20089;-50
2021/10/15 06:29:58;;;;;;;3.08;1.13;;;;;;;10.33;69.79;100491.19;4991877;28;20054;-52
2021/10/15 06:32:24;;;;;;;1.83;1.00;;;;;;;10.31;70.76;100485.13;4995994;28;20409;-50
2021/10/15 06:34:51;;;;;;;1.55;0.50;;;;;;;10.29;70.63;100491.19;4986174;28;20752;-51
2021/10/15 06:37:18;;;;;;;3.05;0.98;;;;;;;10.27;70.90;100487.69;4995984;28;20119;-49
2021/10/15 06:39:50;;;;;;;2.10;0.95;;;;;;;10.24;70.02;100489.41;4986312;28;20042;-50
2021/10/15 06:42:16;;;;;;;4.00;1.20;;;;;;;10.24;70.56;100490.25;5002779;28;20050;-52
2021/10/15 06:44:43;;;;;;;3.17;0.68;;;;;;;10.24;70.67;100482.50;4990402;28;20100;-50
2021/10/15 06:47:10;;;;;;;5.97;1.15;;;;;;;10.25;70.57;100494.59;4990177;28;20082;-50
2021/10/15 06:49:37;;;;;;;1.95;1.17;;;;;;;10.23;70.93;100504.06;4986267;28;20480;-51
2021/10/15 06:52:04;;;;;;;2.55;0.93;;;;;;;10.21;70.68;100508.41;4984535;28;20050;-51
2021/10/15 06:54:30;;;;;;;4.65;0.70;;;;;;;10.18;70.34;100513.53;4981815;28;20093;-51
2021/10/15 06:56:57;;;;;;;3.75;0.60;;;;;;;10.20;69.84;100524.75;4985163;28;20043;-52
2021/10/15 06:59:24;;;;;;;1.70;0.75;;;;;;;10.19;70.92;100524.75;4984831;28;21525;-50
2021/10/15 07:01:50;;;;;;;3.53;1.08;;;;;;;10.18;70.58;100530.78;4977715;28;20054;-50
2021/10/15 07:04:19;;;;;;;3.10;0.70;;;;;;;10.16;70.71;100535.94;4990419;28;20545;-51
2021/10/15 07:06:45;;;;;;;4.32;0.93;;;;;;;10.12;70.70;100539.38;4985107;28;20089;-50
2021/10/15 07:09:12;;;;;;;2.10;0.65;;;;;;;10.11;70.93;100533.34;4993239;28;20057;-50
2021/10/15 07:11:38;;;;;;;3.83;0.70;;;;;;;10.12;70.65;100535.06;4988545;28;20826;-51
2021/10/15 07:14:06;;;;;;;2.70;0.68;;;;;;;10.11;70.59;100532.47;4987562;28;20042;-50
2021/10/15 07:16:33;;;;;;;2.35;0.80;;;;;;;10.12;70.54;100539.38;4982083;28;20441;-50
2021/10/15 07:19:00;;;;;;;3.35;1.30;;;;;;;10.12;70.63;100544.56;4993293;28;20057;-50
2021/10/15 07:21:27;;;;;;;1.90;0.73;;;;;;;10.12;70.34;100549.72;4984168;28;20045;-50
2021/10/15 07:23:54;;;;;;;1.98;0.85;;;;;;;10.10;70.57;100541.94;4984892;28;20406;-49
2021/10/15 07:26:21;;;;;;;1.48;0.70;;;;;;;10.12;70.90;100549.72;4986938;28;20050;-50
2021/10/15 07:28:48;;;;;;;4.05;1.23;;;;;;;10.16;71.21;100556.66;4987380;28;20054;-50
2021/10/15 07:31:15;;;;;;;3.03;0.90;;;;;;;10.18;70.78;100574.78;4982472;28;20061;-51
2021/10/15 07:33:43;;;;;;;5.72;1.55;;;;;;;10.18;70.41;100570.50;4982447;28;20154;-51
2021/10/15 07:36:09;;;;;;;4.60;0.70;;;;;;;10.19;70.23;100568.75;4983717;28;20050;-50
2021/10/15 07:38:37;;;;;;;7.47;1.80;;;;;;;10.22;70.66;100572.25;4989594;28;20058;-50
2021/10/15 07:41:05;;;;;;;4.00;0.80;;;;;;;10.31;70.64;100581.81;4986718;28;20053;-49
2021/10/15 07:43:32;;;;;;;3.78;1.20;;;;;;;10.39;70.49;100592.19;4988106;28;20059;-51
2021/10/15 07:45:59;;;;;;;2.67;0.75;;;;;;;10.43;70.33;100598.28;4986825;28;20162;-49
2021/10/15 07:48:27;;;;;;;2.53;1.20;;;;;;;10.46;69.98;100601.78;4981691;28;20061;-51
2021/10/15 07:50:54;;;;;;;7.72;0.98;;;;;;;10.48;70.06;100602.69;4989430;28;20097;-50
2021/10/15 07:53:20;;;;;;;5.10;1.50;;;;;;;10.53;69.87;100611.31;4986767;28;20048;-51
2021/10/15 07:55:47;;;;;;;4.70;1.13;;;;;;;10.54;69.58;100615.66;4996747;28;20568;-49
2021/10/15 07:58:13;;;;;;;10.30;1.67;;;;;;;10.51;69.53;100620.78;4987637;28;20096;-51
2021/10/15 08:00:41;;;;;;;4.18;1.23;;;;;;;10.54;69.27;100620.81;4988658;28;20046;-52
2021/10/15 08:03:08;;;;;;;5.18;1.38;;;;;;;10.57;69.92;100624.31;4989810;28;20042;-53
2021/10/15 08:05:35;;;;;;;4.63;1.25;;;;;;;10.60;69.17;100632.09;4990206;28;20078;-50
2021/10/15 08:08:01;;;;;;;3.90;1.35;;;;;;;10.61;69.47;100636.41;4994869;28;20092;-49
2021/10/15 08:10:28;;;;;;;6.85;1.50;;;;;;;10.66;69.52;100637.31;4993221;28;20475;-52
2021/10/15 08:12:56;;;;;;;4.43;1.63;;;;;;;10.72;68.96;100642.53;4999227;28;20475;-52
2021/10/15 08:15:24;;;;;;;5.97;1.67;;;;;;;10.79;69.42;100646.91;4987376;28;20465;-52
2021/10/15 08:17:52;;;;;;;3.45;1.40;;;;;;;10.83;68.82;100652.06;4990857;28;20046;-49
2021/10/15 08:20:20;;;;;;;5.63;1.55;;;;;;;11.04;68.50;100666.88;4990356;28;20109;-53
2021/10/15 08:22:49;;;;;;;3.13;1.15;;;;;;;11.27;68.46;100669.59;4990873;28;20058;-49
2021/10/15 08:25:25;;;;;;;6.40;1.35;;;;;;;11.29;68.22;100673.06;4993106;28;20054;-52
2021/10/15 08:27:51;;;;;;;3.45;1.58;;;;;;;11.27;68.36;100684.28;4992822;28;20103;-50
2021/10/15 08:30:18;;;;;;;5.25;1.40;;;;;;;11.21;67.69;100679.09;4988678;28;20054;-51
2021/10/15 08:32:44;;;;;;;5.13;1.52;;;;;;;11.19;66.68;100681.66;4982488;28;20544;-52
2021/10/15 08:35:11;;;;;;;6.28;1.65;;;;;;;11.23;67.12;100687.72;4991396;28;20042;-53
2021/10/15 08:37:38;;;;;;;6.28;1.55;;;;;;;11.24;66.53;100694.63;4982840;28;20593;-52
2021/10/15 08:40:08;;;;;;;4.13;2.53;;;;;;;11.28;67.01;100696.41;4990547;28;20450;-53
2021/10/15 08:42:36;;;;;;;5.95;1.92;;;;;;;11.41;67.30;100697.31;4987960;28;20046;-50
2021/10/15 08:45:05;;;;;;;4.57;1.73;;;;;;;11.60;66.02;100697.38;4988853;28;20500;-53
2021/10/15 08:47:31;;;;;;;2.67;1.05;;;;;;;11.77;66.56;100695.72;4991530;28;20613;-51
2021/10/15 08:50:18;;;;;;;7.53;1.77;;;;;;;12.20;65.65;100696.69;4993773;28;20069;-51
2021/10/15 08:52:45;;;;;;;5.57;1.60;;;;;;;12.52;65.05;100701.03;4992875;28;20115;-53
2021/10/15 08:55:11;;;;;;;4.20;1.23;;;;;;;13.22;63.08;100703.53;4986420;28;20046;-50
2021/10/15 08:57:38;;;;;;;5.28;1.67;;;;;;;14.54;63.48;100703.63;4988888;28;20129;-54
2021/10/15 09:00:25;;;;;;;;;;;;;;;15.84;60.40;100716.13;4988101;28;20059;-51
2021/10/15 09:03:14;;;;;;;5.47;1.05;;;;;;;17.18;57.29;100708.75;4986738;28;19926;-52
2021/10/15 09:05:50;;;;;;;6.65;1.45;;;;;;;18.11;54.00;100720.78;5000517;28;20042;-54
2021/10/15 09:08:17;;;;;;;;;;;;;;;18.73;50.60;100719.25;4988074;28;20053;-54
2021/10/15 09:10:44;;;;;;;3.92;2.55;;;;;;;19.50;50.65;100723.31;4989419;28;20274;-54
2021/10/15 09:13:17;;;;;;;5.50;1.95;;;;;;;20.23;49.51;100719.41;4984744;28;20115;-55
2021/10/15 09:15:47;;;;;;;3.95;1.52;;;;;;;20.78;47.93;100728.97;4994371;28;20042;-55
2021/10/15 09:18:29;;;;;;;7.82;2.30;;;;;;;21.31;46.43;100714.81;4986682;28;20050;-54
2021/10/15 09:20:57;;;;;;;3.28;2.00;;;;;;;21.89;44.64;100725.84;4991545;28;20375;-55
2021/10/15 09:23:46;;;;;;;3.10;1.55;;;;;;;22.31;42.92;100716.25;4989176;28;20725;-55
2021/10/15 09:26:14;;;;;;;3.03;1.00;;;;;;;22.89;43.03;100727.06;4986417;28;20047;-52
2021/10/15 09:28:42;;;;;;;2.50;1.17;;;;;;;23.54;43.07;100728.59;4987926;28;20043;-54
2021/10/15 09:31:09;;;;;;;3.10;1.40;;;;;;;24.00;40.77;100724.69;4987211;28;20561;-53
2021/10/15 09:33:36;;;;;;;2.53;1.65;;;;;;;24.30;40.07;100721.50;4992085;28;20084;-55
2021/10/15 09:36:05;;;;;;;4.60;1.75;;;;;;;24.46;39.42;100731.31;4985678;28;20379;-55
2021/10/15 09:38:32;;;;;;;6.07;1.67;;;;;;;24.80;38.65;100740.19;4991371;28;20047;-55
2021/10/15 09:40:59;;;;;;;3.53;1.30;;;;;;;24.95;37.67;100735.06;4986335;28;20049;-55
2021/10/15 09:43:34;;;;;;;3.53;1.38;;;;;;;24.99;35.35;100728.66;4994864;28;20116;-51
2021/10/15 09:46:01;;;;;;;3.40;1.48;;;;;;;25.27;36.98;100733.31;4995705;28;20636;-55
2021/10/15 09:48:36;;;;;;;3.90;1.30;;;;;;;25.42;36.26;100739.59;4993083;28;20054;-52
2021/10/15 09:51:21;;;;;;;4.40;1.00;;;;;;;25.60;33.00;100736.91;4999973;28;20449;-53
2021/10/15 09:54:11;;;;;;;4.05;1.30;;;;;;;25.56;33.52;100732.69;4986493;28;20062;-52
2021/10/15 09:56:41;;;;;;;3.60;1.17;;;;;;;25.80;35.34;100734.94;4987346;28;20050;-52
2021/10/15 09:59:08;;;;;;;3.05;0.88;;;;;;;25.98;35.06;100737.50;4991847;28;20042;-54
2021/10/15 10:01:36;;;;;;;4.47;0.73;;;;;;;26.20;34.85;100733.63;4993501;28;20125;-54
2021/10/15 10:04:09;;;;;;;4.88;1.15;;;;;;;26.51;33.72;100737.16;4991912;28;20050;-53
2021/10/15 10:06:36;;;;;;;3.22;0.98;;;;;;;26.57;33.16;100744.75;4989098;28;20054;-55
2021/10/15 10:09:05;;;;;;;4.75;1.08;;;;;;;26.51;32.46;100745.13;4982805;28;20851;-55
2021/10/15 10:11:32;;;;;;;2.65;0.60;;;;;;;26.28;32.59;100740.19;4985580;28;20046;-53
2021/10/15 10:14:15;;;;;;;2.13;1.20;;;;;;;26.16;32.57;100736.44;4990865;28;20054;-54
2021/10/15 10:16:44;;;;;;;2.35;1.05;;;;;;;26.29;32.83;100733.09;4986342;28;20053;-53
2021/10/15 10:19:12;;;;;;;4.65;0.75;;;;;;;26.36;32.35;100737.13;4990699;28;20034;-56
2021/10/15 10:21:39;;;;;;;3.42;1.00;;;;;;;26.33;32.42;100731.97;4986203;28;20104;-52
2021/10/15 10:24:12;;;;;;;3.03;1.10;;;;;;;26.39;31.77;100731.63;4986249;28;20042;-54
2021/10/15 10:26:45;;;;;;;4.20;1.13;;;;;;;26.29;32.42;100735.75;4987997;28;20277;-55
2021/10/15 10:29:12;;;;;;;4.65;1.15;;;;;;;25.98;32.00;100740.16;4980544;28;20050;-55
2021/10/15 10:31:39;;;;;;;4.22;0.57;;;;;;;25.08;31.96;100737.91;4982175;28;20097;-55
2021/10/15 10:34:08;;;;;;;3.05;0.73;;;;;;;24.33;34.14;100742.53;4988200;28;20057;-52
2021/10/15 10:36:37;;;;;;;4.82;0.98;;;;;;;24.18;32.89;100740.66;4991766;28;20065;-52
2021/10/15 10:39:26;;;;;;;2.70;1.13;;;;;;;24.06;32.84;100740.28;4984541;28;20105;-54
2021/10/15 10:42:10;;;;;;;1.95;0.55;;;;;;;23.84;32.92;100740.47;4986450;28;20065;-55
2021/10/15 10:44:39;;;;;;;4.05;0.50;;;;;;;23.26;34.19;100745.69;4987741;28;20101;-52
2021/10/15 10:47:12;;;;;;;3.45;0.85;;;;;;;22.54;34.76;100748.75;4988327;28;20049;-51
2021/10/15 10:50:09;;;;;;;5.65;0.55;;;;;;;21.96;35.38;100758.13;4984981;28;20042;-54
2021/10/15 10:53:07;;;;;;;1.95;0.82;;;;;;;21.43;35.99;100750.41;4989450;28;21160;-53
2021/10/15 10:55:41;;;;;;;4.82;0.82;;;;;;;21.05;36.59;100748.22;4982361;28;20053;-54
2021/10/15 10:58:31;;;;;;;3.72;1.08;;;;;;;20.55;36.35;100747.28;4993651;28;20046;-54
2021/10/15 11:01:19;;;;;;;3.35;0.75;;;;;;;19.93;38.43;100749.22;4989380;28;20116;-54
2021/10/15 11:03:46;;;;;;;6.13;1.15;;;;;;;19.61;39.31;100748.41;4983972;28;20050;-54
2021/10/15 11:06:13;;;;;;;3.25;0.85;;;;;;;19.37;39.65;100740.31;4985014;28;20568;-53
2021/10/15 11:08:42;;;;;;;1.67;0.73;;;;;;;19.04;40.04;100738.56;4985723;28;20112;-54
2021/10/15 11:11:38;;;;;;;3.72;0.85;;;;;;;18.69;39.19;100738.59;4998468;28;20517;-53
2021/10/15 11:14:05;;;;;;;;;;;;;;;18.37;40.51;100753.38;4987479;28;20097;-51
2021/10/15 11:16:32;;;;;;;5.95;0.95;;;;;;;18.42;41.05;100750.63;4984613;28;20925;-53
2021/10/15 11:19:00;;;;;;;1.05;0.98;;;;;;;18.29;40.90;100745.69;4987593;28;20046;-51
2021/10/15 11:21:27;;;;;;;4.90;0.90;;;;;;;18.18;41.50;100751.22;4983733;28;20570;-54
2021/10/15 11:23:53;;;;;;;4.07;1.00;;;;;;;18.11;42.46;100757.47;4985316;28;20054;-53
2021/10/15 11:26:35;;;;;;;4.45;0.80;;;;;;;18.09;41.55;100764.50;4988800;28;20050;-51
2021/10/15 11:29:04;;;;;;;3.22;0.95;;;;;;;18.09;42.20;100759.25;4986090;28;20081;-52
2021/10/15 11:31:31;;;;;;;4.95;1.65;;;;;;;17.96;41.95;100766.50;4984359;28;20058;-53
2021/10/15 11:34:13;;;;;;;3.25;0.85;;;;;;;17.58;42.01;100763.81;4980929;28;20574;-51
2021/10/15 11:36:41;;;;;;;3.28;0.65;;;;;;;17.44;43.77;100759.72;4981606;28;20499;-53
2021/10/15 11:39:07;;;;;;;1.92;0.60;;;;;;;17.34;43.14;100759.06;4984930;28;20549;-52
2021/10/15 11:41:47;;;;;;;6.13;0.73;;;;;;;17.16;43.64;100768.09;4985837;28;20046;-51